Have a Safe July 4th! 

Flight Track Log - Related Links

Times and Time Zones

All times are in EDT time to prevent confusion due to time zone crossing. See the KAP46 flight status page for this flight to view local times or setup timezone preferences in your user account.

Time Position Orientation Groundspeed Altitude Reporting Facility
EDT Latitude Longitude Course Direction KTS MPH feet Rate Location/Type
Fri 06:46:59 PM 42.7922 -73.8122 354° North 114 131 1,600  Level Boston Center
Fri 06:48:06 PM 42.8275 -73.8386 331° Northwest 120 138 2,100 472 Climbing Boston Center
Fri 06:49:06 PM 42.8583 -73.8592 334° Northwest 126 145 2,600 496 Climbing Boston Center
Fri 06:50:07 PM 42.8917 -73.8683 349° North 124 143 3,100 466 Climbing Boston Center
Fri 06:50:49 PM 42.9144 -73.8744 349° North 126 145 3,400 438 Climbing Boston Center
Fri 06:51:43 PM 42.9497 -73.8783 355° North 134 154 3,800 518 Climbing Boston Center
Fri 06:53:08 PM 42.9953 -73.9106 333° Northwest 121 139 4,600 571 Climbing Boston Center
Fri 06:54:10 PM 43.0283 -73.9256 342° North 128 147 5,200 590 Climbing Boston Center
Fri 06:55:10 PM 43.0617 -73.9378 345° North 132 152 5,800 600 Climbing Boston Center
Fri 06:56:10 PM 43.0969 -73.9528 343° North 131 151 6,400 545 Climbing Boston Center
Fri 06:57:11 PM 43.1322 -73.9678 343° North 131 151 6,900 466 Climbing Boston Center
Fri 06:57:53 PM 43.1592 -73.9769 346° North 140 161 7,200 480 Climbing Boston Center
Fri 06:58:51 PM 43.1903 -73.9892 344° North 153 176 7,700 458 Climbing Boston Center
Fri 06:59:51 PM 43.2294 -74.0131 336° Northwest 147 169 8,100 198 Climbing Boston Center
Fri 07:00:52 PM 43.2689 -74.0256 347° North 155 178 8,100  Level Boston Center
Fri 07:01:52 PM 43.3167 -74.0381 349° North 160 184 8,100 -50 Level Boston Center
Fri 07:02:53 PM 43.3581 -74.0536 345° North 165 190 8,000  Descending Boston Center
Fri 07:03:53 PM 43.3975 -74.0744 339° North 159 183 8,100 50 Climbing Boston Center
Fri 07:04:54 PM 43.4389 -74.0872 347° North 159 183 8,100  Level Boston Center
Fri 07:05:51 PM 43.4822 -74.1111 338° Northwest 153 176 8,100  Level Boston Center
Fri 07:06:52 PM 43.5239 -74.1267 345° North 148 170 8,100  Level Boston Center
Fri 07:07:53 PM 43.5672 -74.1422 345° North 148 170 8,100  Level Boston Center
Fri 07:08:53 PM 43.6067 -74.1606 341° North 148 170 8,100  Level Boston Center
Fri 07:09:51 PM 43.6481 -74.1789 342° North 148 170 8,100  Level Boston Center
Fri 07:10:52 PM 43.6894 -74.1972 342° North 148 170 8,100 50 Level Boston Center
Fri 07:11:52 PM 43.7331 -74.2131 345° North 148 170 8,200 -99 Climbing Boston Center
Fri 07:12:53 PM 43.7681 -74.2397 331° Northwest 148 170 7,900 -99 Descending Boston Center
Fri 07:13:53 PM 43.8069 -74.2697 331° Northwest 153 176 8,000 50 Climbing Boston Center
Fri 07:14:54 PM 43.8506 -74.2942 338° Northwest 158 182 8,000  Level Boston Center
Fri 07:15:52 PM 43.8875 -74.3183 335° Northwest 152 175 8,000  Level Boston Center
Fri 07:16:52 PM 43.9267 -74.3425 336° Northwest 152 175 8,000  Level Boston Center
Fri 07:17:53 PM 43.9661 -74.3642 338° Northwest 152 175 8,000  Level Boston Center
Fri 07:18:53 PM 44.0072 -74.3883 337° Northwest 152 175 8,000  Level Boston Center
Fri 07:19:53 PM 44.0486 -74.4072 342° North 152 175 8,000  Level Boston Center
Fri 07:20:51 PM 44.0900 -74.4231 345° North 152 175 8,000  Level Boston Center
Fri 07:21:52 PM 44.1356 -74.4389 346° North 152 175 8,000  Level Boston Center
Fri 07:22:53 PM 44.1792 -74.4578 343° North 157 181 8,000  Level Boston Center
Fri 07:23:53 PM 44.2206 -74.4736 345° North 157 181 8,000  Level Boston Center
Fri 07:24:51 PM 44.2639 -74.4925 343° North 157 181 8,000  Level Boston Center
Fri 07:25:51 PM 44.3072 -74.5086 345° North 157 181 8,000  Level Boston Center
Fri 07:26:52 PM 44.3467 -74.5244 344° North 157 181 8,000 -198 Level Boston Center
Fri 07:27:52 PM 44.3919 -74.5492 339° North 157 181 7,600 -446 Descending Boston Center
Fri 07:28:53 PM 44.4417 -74.5714 342° North 168 193 7,100 -504 Descending Boston Center
Fri 07:29:51 PM 44.4911 -74.5936 342° North 173 199 6,600 -555 Descending Boston Center
Fri 07:30:52 PM 44.5367 -74.6214 337° Northwest 178 205 6,000 -344 Descending Boston Center
Fri 07:31:53 PM 44.5797 -74.6492 335° Northwest 178 205 5,900 -50 Descending Boston Center
Fri 07:32:53 PM 44.6233 -74.6656 345° North 171 197 5,900 -153 Level Boston Center
Fri 07:33:51 PM 44.6667 -74.6875 340° North 166 191 5,600 -407 Descending Boston Center
Fri 07:34:51 PM 44.7119 -74.7128 338° Northwest 166 191 5,100 -298 Descending Boston Center
Fri 07:35:52 PM 44.7489 -74.7375 335° Northwest 166 191 5,000 -98 Descending Boston Center

Login

Don't have an account? Register now (free) for customized features, flight alerts, and more!